createdAt,value
2023-04-19T00:01:16.110Z,8.90
2023-04-19T00:03:52.466Z,5.35
2023-04-19T00:07:32.868Z,9.32
2023-04-19T00:10:21.953Z,4.57
2023-04-19T00:12:53.619Z,4.25
2023-04-19T00:15:22.967Z,4.97
2023-04-19T00:17:52.820Z,5.72
2023-04-19T00:24:40.942Z,6.30
2023-04-19T00:27:11.503Z,2.42
2023-04-19T00:29:41.592Z,5.75
2023-04-19T00:32:56.271Z,4.85
2023-04-19T00:42:36.740Z,3.70
2023-04-19T00:49:45.345Z,6.38
2023-04-19T00:52:15.137Z,7.32
2023-04-19T00:54:44.765Z,5.97
2023-04-19T00:57:17.556Z,6.53
2023-04-19T01:00:27.875Z,3.60
2023-04-19T01:02:58.420Z,4.47
2023-04-19T01:05:50.072Z,6.63
2023-04-19T01:11:25.115Z,5.13
2023-04-19T01:14:04.079Z,6.60
2023-04-19T01:16:33.856Z,4.10
2023-04-19T01:19:05.321Z,8.07
2023-04-19T01:21:34.421Z,4.70
2023-04-19T01:24:04.852Z,5.78
2023-04-19T01:26:34.095Z,4.20
2023-04-19T01:29:05.527Z,4.45
2023-04-19T01:31:34.749Z,5.18
2023-04-19T01:34:11.948Z,5.25
2023-04-19T01:40:46.104Z,4.03
2023-04-19T01:44:28.018Z,9.18
2023-04-19T01:48:04.451Z,4.68
2023-04-19T01:51:03.333Z,5.93
2023-04-19T01:54:11.159Z,3.70
2023-04-19T01:57:27.841Z,5.65
2023-04-19T02:00:15.407Z,4.50
2023-04-19T02:03:35.974Z,10.52
2023-04-19T02:06:48.910Z,6.25
2023-04-19T02:13:06.973Z,3.90
2023-04-19T02:19:32.709Z,9.68
2023-04-19T02:36:13.400Z,6.43
2023-04-19T02:54:12.674Z,4.20
2023-04-19T03:01:41.721Z,3.60
2023-04-19T03:08:02.639Z,4.68
2023-04-19T03:11:23.342Z,5.80
2023-04-19T03:14:28.112Z,7.47
2023-04-19T03:29:19.985Z,8.95
2023-04-19T03:32:36.805Z,4.13
2023-04-19T03:42:58.233Z,4.32
2023-04-19T03:45:49.170Z,3.95
2023-04-19T04:07:00.586Z,4.72
2023-04-19T04:10:31.759Z,9.30
2023-04-19T04:17:21.326Z,4.85
2023-04-19T04:21:08.458Z,7.13
2023-04-19T04:25:15.947Z,4.43
2023-04-19T04:29:30.695Z,7.25
2023-04-19T04:36:50.480Z,5.55
2023-04-19T04:41:17.343Z,3.42
2023-04-19T04:44:56.339Z,4.72
2023-04-19T04:56:02.823Z,4.68
2023-04-19T05:05:48.707Z,4.57
2023-04-19T05:09:01.732Z,11.27
2023-04-19T05:11:54.724Z,6.57
2023-04-19T05:15:00.482Z,6.68
2023-04-19T05:25:21.432Z,4.80
2023-04-19T05:28:30.776Z,4.28
2023-04-19T05:34:39.404Z,4.70
2023-04-19T05:37:08.888Z,4.00
2023-04-19T05:39:38.834Z,4.50
2023-04-19T05:42:09.281Z,3.50
2023-04-19T05:44:39.075Z,5.38
2023-04-19T05:47:08.980Z,5.13
2023-04-19T05:49:58.500Z,3.28
2023-04-19T05:52:32.940Z,7.55
2023-04-19T05:55:03.307Z,7.55
2023-04-19T05:57:34.806Z,3.88
2023-04-19T06:00:05.191Z,2.30
2023-04-19T06:02:45.615Z,2.60
2023-04-19T06:05:16.494Z,2.40
2023-04-19T06:07:54.418Z,2.10
2023-04-19T06:10:25.848Z,2.90
2023-04-19T06:12:59.903Z,3.20
2023-04-19T06:15:30.944Z,2.65
2023-04-19T06:18:00.181Z,6.30
2023-04-19T06:20:29.428Z,4.18
2023-04-19T06:22:58.431Z,8.13
2023-04-19T06:25:27.549Z,4.07
2023-04-19T06:27:56.762Z,3.58
2023-04-19T06:30:27.506Z,11.68
2023-04-19T06:32:56.865Z,8.35
2023-04-19T06:35:26.554Z,3.22
2023-04-19T06:37:55.626Z,3.50
2023-04-19T06:40:24.955Z,5.80
2023-04-19T06:42:54.663Z,4.65
2023-04-19T06:45:24.315Z,5.50
2023-04-19T06:47:55.088Z,4.25
2023-04-19T06:50:24.372Z,3.35
2023-04-19T06:52:53.460Z,10.18
2023-04-19T06:55:22.949Z,3.38
2023-04-19T06:57:51.994Z,5.35
2023-04-19T07:00:21.827Z,4.95
2023-04-19T07:02:52.546Z,3.33
2023-04-19T07:05:23.330Z,2.67
2023-04-19T07:07:52.687Z,7.18
2023-04-19T07:10:21.639Z,4.68
2023-04-19T07:12:50.740Z,7.63
2023-04-19T07:15:20.044Z,2.50
2023-04-19T07:17:49.457Z,9.43
2023-04-19T07:20:18.831Z,2.47
2023-04-19T07:22:49.395Z,6.43
2023-04-19T07:25:18.765Z,4.47
2023-04-19T07:27:47.988Z,5.65
2023-04-19T07:30:17.318Z,6.93
2023-04-19T07:32:46.595Z,5.22
2023-04-19T07:35:15.999Z,6.57
2023-04-19T07:37:45.349Z,2.88
2023-04-19T07:40:16.407Z,4.53
2023-04-19T07:42:45.553Z,4.05
2023-04-19T07:45:14.720Z,3.42
2023-04-19T07:47:43.922Z,10.85
2023-04-19T07:50:13.664Z,3.25
2023-04-19T07:52:42.763Z,4.40
2023-04-19T07:55:12.222Z,5.20
2023-04-19T07:57:46.256Z,2.70
2023-04-19T08:00:16.550Z,7.15
2023-04-19T08:02:46.594Z,6.07
2023-04-19T08:05:17.793Z,3.90
2023-04-19T08:07:47.283Z,5.05
2023-04-19T08:10:17.894Z,2.88
2023-04-19T08:13:03.767Z,7.07
2023-04-19T08:18:07.637Z,2.88
2023-04-19T08:20:36.986Z,3.20
2023-04-19T08:23:20.629Z,9.68
2023-04-19T08:25:52.007Z,3.75
2023-04-19T08:28:22.514Z,3.95
2023-04-19T08:30:51.586Z,6.63
2023-04-19T08:33:20.829Z,3.30
2023-04-19T08:35:50.808Z,5.80
2023-04-19T08:38:20.474Z,3.50
2023-04-19T08:40:53.961Z,2.45
2023-04-19T08:43:28.900Z,5.72
2023-04-19T08:45:59.013Z,7.77
2023-04-19T08:48:30.866Z,2.70
2023-04-19T08:51:05.443Z,8.70
2023-04-19T08:53:36.891Z,8.60
2023-04-19T08:56:20.640Z,4.00
2023-04-19T08:59:07.636Z,5.27
2023-04-19T09:01:44.860Z,6.90
2023-04-19T09:04:31.589Z,4.00
2023-04-19T09:07:03.940Z,10.03
2023-04-19T09:09:40.764Z,4.93
2023-04-19T09:12:19.138Z,4.87
2023-04-19T09:15:01.249Z,3.53
2023-04-19T09:17:33.867Z,6.30
2023-04-19T09:20:04.606Z,4.20
2023-04-19T09:22:35.724Z,6.40
2023-04-19T09:27:38.994Z,5.10
2023-04-19T09:30:20.709Z,3.67
2023-04-19T09:32:57.180Z,3.30
2023-04-19T09:35:42.449Z,5.43
2023-04-19T09:38:12.039Z,21.53
2023-04-19T09:40:42.368Z,7.70
2023-04-19T09:45:48.548Z,4.67
2023-04-19T09:48:17.752Z,40.23
2023-04-19T09:51:00.192Z,8.67
2023-04-19T09:53:34.793Z,8.30
2023-04-19T09:56:06.622Z,9.70
2023-04-19T09:58:51.166Z,3.67
2023-04-19T10:01:40.482Z,5.90
2023-04-19T10:04:43.537Z,4.63
2023-04-19T10:07:29.953Z,4.10
2023-04-19T10:10:15.921Z,8.03
2023-04-19T10:13:11.483Z,7.80
2023-04-19T10:16:18.048Z,4.43
2023-04-19T10:18:55.658Z,6.67
2023-04-19T10:21:36.686Z,4.37
2023-04-19T10:24:12.493Z,7.33
2023-04-19T10:27:17.196Z,3.57
2023-04-19T10:30:14.276Z,3.30
2023-04-19T10:32:50.353Z,5.47
2023-04-19T10:35:38.384Z,8.60
2023-04-19T10:38:09.777Z,6.23
2023-04-19T10:41:06.351Z,6.70
2023-04-19T10:43:48.711Z,4.87
2023-04-19T10:46:54.792Z,3.97
2023-04-19T10:49:31.189Z,4.93
2023-04-19T10:52:03.876Z,4.83
2023-04-19T10:54:37.776Z,4.63
2023-04-19T10:57:08.398Z,3.60
2023-04-19T10:59:48.102Z,5.33
2023-04-19T11:02:32.587Z,6.23
2023-04-19T11:05:14.563Z,6.40
2023-04-19T11:08:02.737Z,10.27
2023-04-19T11:10:32.340Z,3.37
2023-04-19T11:13:01.885Z,4.53
2023-04-19T11:15:33.857Z,4.37
2023-04-19T11:18:12.920Z,5.47
2023-04-19T11:20:45.108Z,5.13
2023-04-19T11:23:25.180Z,7.30
2023-04-19T11:26:03.163Z,8.13
2023-04-19T11:28:34.988Z,4.87
2023-04-19T11:31:04.765Z,6.30
2023-04-19T11:33:35.977Z,5.97
2023-04-19T11:36:15.308Z,4.47
2023-04-19T11:38:48.634Z,3.83
2023-04-19T11:41:17.434Z,4.37
2023-04-19T11:43:46.923Z,4.93
2023-04-19T11:46:15.908Z,3.90
2023-04-19T11:48:53.264Z,6.93
2023-04-19T11:51:22.497Z,4.60
2023-04-19T11:53:52.840Z,7.23
2023-04-19T11:56:23.027Z,4.33
2023-04-19T11:58:51.927Z,6.10
2023-04-19T12:01:24.606Z,3.60
2023-04-19T12:03:57.725Z,4.57
2023-04-19T12:06:28.467Z,5.80
2023-04-19T12:08:59.008Z,9.27
2023-04-19T12:11:43.670Z,4.17
2023-04-19T12:14:13.032Z,7.60
2023-04-19T12:16:42.309Z,4.43
2023-04-19T12:19:17.417Z,5.47
2023-04-19T12:21:47.045Z,4.50
2023-04-19T12:24:18.745Z,5.43
2023-04-19T12:26:56.591Z,3.60
2023-04-19T12:29:25.653Z,4.40
2023-04-19T12:31:54.512Z,4.53
2023-04-19T12:34:23.546Z,6.70
2023-04-19T12:36:52.456Z,3.73
2023-04-19T12:39:22.801Z,5.13
2023-04-19T12:41:51.877Z,3.43
2023-04-19T12:44:20.857Z,6.17
2023-04-19T12:46:49.782Z,5.53
2023-04-19T12:49:21.039Z,7.80
2023-04-19T12:51:49.901Z,12.17
2023-04-19T12:54:18.779Z,6.40
2023-04-19T12:56:49.102Z,6.70
2023-04-19T12:59:18.415Z,14.90
2023-04-19T13:01:47.745Z,6.77
2023-04-19T13:04:17.290Z,6.40
2023-04-19T13:06:46.576Z,4.00
2023-04-19T13:09:15.733Z,7.00
2023-04-19T13:11:44.663Z,5.13
2023-04-19T13:14:15.451Z,7.40
2023-04-19T13:16:44.540Z,7.33
2023-04-19T13:19:13.482Z,6.33
2023-04-19T13:21:42.749Z,4.37
2023-04-19T13:24:12.025Z,4.90
2023-04-19T13:26:41.223Z,5.60
2023-04-19T13:29:10.065Z,9.87
2023-04-19T13:31:40.429Z,5.67
2023-04-19T13:34:09.378Z,6.70
2023-04-19T13:36:38.174Z,7.47
2023-04-19T13:39:08.394Z,9.23
2023-04-19T13:41:37.593Z,5.93
2023-04-19T13:44:06.491Z,5.03
2023-04-19T13:46:35.480Z,5.13
2023-04-19T13:49:05.698Z,6.83
2023-04-19T13:51:49.740Z,12.70
2023-04-19T13:54:19.983Z,5.77
2023-04-19T13:56:51.998Z,5.27
2023-04-19T13:59:21.802Z,7.03
2023-04-19T14:01:50.738Z,4.50
2023-04-19T14:04:22.162Z,9.83
2023-04-19T14:06:51.602Z,6.70
2023-04-19T14:09:20.447Z,8.30
2023-04-19T14:11:50.007Z,12.00
2023-04-19T14:14:19.043Z,4.03
2023-04-19T14:16:47.980Z,5.63
2023-04-19T14:19:16.842Z,5.97
2023-04-19T14:21:47.089Z,10.90
2023-04-19T14:24:16.251Z,8.70
2023-04-19T14:26:45.289Z,10.93
2023-04-19T14:29:14.296Z,11.60
2023-04-19T14:31:43.271Z,5.00
2023-04-19T14:34:12.194Z,9.90
2023-04-19T14:36:41.344Z,5.73
2023-04-19T14:39:11.532Z,7.00
2023-04-19T14:41:40.361Z,7.60
2023-04-19T14:44:09.205Z,5.80
2023-04-19T14:46:38.058Z,5.67
2023-04-19T14:49:07.409Z,14.43
2023-04-19T14:51:36.307Z,11.10
2023-04-19T14:54:05.344Z,6.80
2023-04-19T14:56:35.949Z,5.63
2023-04-19T14:59:06.708Z,7.90
2023-04-19T15:01:35.802Z,10.07
2023-04-19T15:04:04.987Z,7.47
2023-04-19T15:06:34.066Z,8.57
2023-04-19T15:09:02.930Z,10.20
2023-04-19T15:11:31.882Z,14.07
2023-04-19T15:14:02.326Z,13.43
2023-04-19T15:16:31.370Z,11.73
2023-04-19T15:19:02.097Z,10.15
2023-04-19T15:21:31.376Z,11.32
2023-04-19T15:24:00.230Z,16.42
2023-04-19T15:26:29.404Z,16.08
2023-04-19T15:28:58.655Z,8.27
2023-04-19T15:31:28.973Z,8.20
2023-04-19T15:33:57.897Z,10.05
2023-04-19T15:36:28.515Z,9.32
2023-04-19T15:38:58.018Z,12.93
2023-04-19T15:41:26.990Z,11.10
2023-04-19T15:43:56.021Z,13.52
2023-04-19T15:46:24.982Z,14.77
2023-04-19T15:48:55.223Z,9.48
2023-04-19T15:51:24.073Z,13.75
2023-04-19T15:53:52.896Z,10.35
2023-04-19T15:56:21.761Z,9.85
2023-04-19T15:58:55.909Z,13.15
2023-04-19T16:01:24.786Z,20.10
2023-04-19T16:03:55.179Z,12.45
2023-04-19T16:06:24.247Z,9.18
2023-04-19T16:08:53.054Z,8.80
2023-04-19T16:11:22.048Z,14.07
2023-04-19T16:13:50.900Z,8.65
2023-04-19T16:16:19.820Z,9.45
2023-04-19T16:18:48.721Z,14.93
2023-04-19T16:21:18.942Z,9.73
2023-04-19T16:23:48.035Z,18.70
2023-04-19T16:26:16.847Z,10.32
2023-04-19T16:28:45.709Z,14.93
2023-04-19T16:31:14.547Z,9.82
2023-04-19T16:33:43.457Z,10.35
2023-04-19T16:36:12.489Z,12.65
2023-04-19T16:38:42.640Z,15.52
2023-04-19T16:41:11.885Z,17.65
2023-04-19T16:43:40.824Z,14.80
2023-04-19T16:46:09.924Z,13.77
2023-04-19T16:48:38.763Z,14.63
2023-04-19T16:51:07.728Z,13.38
2023-04-19T16:53:36.625Z,18.35
2023-04-19T16:56:07.314Z,14.38
2023-04-19T16:58:36.109Z,14.32
2023-04-19T17:01:05.022Z,8.50
2023-04-19T17:03:35.024Z,16.05
2023-04-19T17:06:04.042Z,9.80
2023-04-19T17:08:32.848Z,13.60
2023-04-19T17:11:01.721Z,11.13
2023-04-19T17:13:32.174Z,9.35
2023-04-19T17:16:01.090Z,16.70
2023-04-19T17:18:29.992Z,14.48
2023-04-19T17:20:58.707Z,11.20
2023-04-19T17:23:27.524Z,10.35
2023-04-19T17:25:56.347Z,11.25
2023-04-19T17:28:25.179Z,12.65
2023-04-19T17:30:55.413Z,20.15
2023-04-19T17:33:24.205Z,12.45
2023-04-19T17:35:53.335Z,13.57
2023-04-19T17:38:22.336Z,8.73
2023-04-19T17:40:51.301Z,19.00
2023-04-19T17:43:20.965Z,11.02
2023-04-19T17:45:49.867Z,14.88
2023-04-19T17:48:22.215Z,14.50
2023-04-19T17:50:51.120Z,11.80
2023-04-19T17:53:20.018Z,10.18
2023-04-19T17:55:49.023Z,11.70
2023-04-19T17:58:18.090Z,10.60
2023-04-19T18:00:47.100Z,12.40
2023-04-19T18:03:16.204Z,17.92
2023-04-19T18:05:46.582Z,15.18
2023-04-19T18:08:15.449Z,10.02
2023-04-19T18:10:44.327Z,11.10
2023-04-19T18:13:13.257Z,19.05
2023-04-19T18:15:42.326Z,16.08
2023-04-19T18:18:11.289Z,12.38
2023-04-19T18:20:40.254Z,11.20
2023-04-19T18:23:10.626Z,11.82
2023-04-19T18:25:39.703Z,15.85
2023-04-19T18:28:08.563Z,16.10
2023-04-19T18:30:37.467Z,11.32
2023-04-19T18:33:06.639Z,13.57
2023-04-19T18:35:36.669Z,19.40
2023-04-19T18:38:05.549Z,10.38
2023-04-19T18:40:35.815Z,14.35
2023-04-19T18:43:04.967Z,13.18
2023-04-19T18:45:33.921Z,13.23
2023-04-19T18:48:02.973Z,12.68
2023-04-19T18:50:32.099Z,12.52
2023-04-19T18:53:01.242Z,14.68
2023-04-19T18:55:31.211Z,15.52
2023-04-19T18:58:01.686Z,14.90
2023-04-19T19:00:30.842Z,14.40
2023-04-19T19:03:00.945Z,16.77
2023-04-19T19:05:32.047Z,18.00
2023-04-19T19:08:01.288Z,17.92
2023-04-19T19:13:03.701Z,19.70
2023-04-19T19:15:34.091Z,20.17
2023-04-19T19:18:03.303Z,24.33
2023-04-19T19:20:32.258Z,22.00
2023-04-19T19:23:01.304Z,19.80
2023-04-19T19:25:30.249Z,21.58
2023-04-19T19:28:10.038Z,25.05
2023-04-19T19:30:43.142Z,30.60
2023-04-19T19:33:12.402Z,24.95
2023-04-19T19:35:41.423Z,23.25
2023-04-19T19:38:10.732Z,24.70
2023-04-19T19:41:04.215Z,27.13
2023-04-19T19:43:30.064Z,24.05
2023-04-19T19:46:03.701Z,27.70
2023-04-19T19:48:38.493Z,30.50
2023-04-19T19:51:41.590Z,26.77
2023-04-19T19:53:59.434Z,22.23
2023-04-19T19:56:28.511Z,26.50
2023-04-19T19:58:58.857Z,28.10
2023-04-19T20:01:28.172Z,29.95
2023-04-19T20:03:57.548Z,22.60
2023-04-19T20:07:21.941Z,31.88
2023-04-19T20:09:15.835Z,37.88
2023-04-19T20:11:45.007Z,26.38
2023-04-19T20:14:15.337Z,34.28
2023-04-19T20:16:49.958Z,28.08
2023-04-19T20:19:19.497Z,26.98
2023-04-19T20:21:48.676Z,39.08
2023-04-19T20:24:18.413Z,29.75
2023-04-19T20:26:47.401Z,33.92
2023-04-19T20:29:17.987Z,27.50
2023-04-19T20:31:47.080Z,28.25
2023-04-19T20:34:16.267Z,22.98
2023-04-19T20:36:46.863Z,27.05
2023-04-19T20:39:16.512Z,21.85
2023-04-19T20:41:48.006Z,24.67
2023-04-19T20:44:20.231Z,23.50
2023-04-19T20:46:50.461Z,28.35
2023-04-19T20:49:19.392Z,27.58
2023-04-19T20:51:49.948Z,23.63
2023-04-19T20:54:19.039Z,21.55
2023-04-19T20:56:49.395Z,26.02
2023-04-19T20:59:19.656Z,24.40
2023-04-19T21:01:48.592Z,26.27
2023-04-19T21:04:17.635Z,22.50
2023-04-19T21:06:47.557Z,25.60
2023-04-19T21:09:16.644Z,20.20
2023-04-19T21:11:45.696Z,21.75
2023-04-19T21:14:14.601Z,22.05
2023-04-19T21:16:44.881Z,26.70
2023-04-19T21:19:13.827Z,21.35
2023-04-19T21:21:42.748Z,21.30
2023-04-19T21:24:11.732Z,24.23
2023-04-19T21:26:45.923Z,19.63
2023-04-19T21:29:15.357Z,21.55
2023-04-19T21:31:46.052Z,26.70
2023-04-19T21:34:15.138Z,20.23
2023-04-19T21:36:44.127Z,22.25
2023-04-19T21:39:13.163Z,23.38
2023-04-19T21:41:43.022Z,21.02
2023-04-19T21:44:11.904Z,23.10
2023-04-19T21:46:40.999Z,28.67
2023-04-19T21:49:11.261Z,18.67
2023-04-19T21:51:40.245Z,22.05
2023-04-19T21:54:09.144Z,19.38
2023-04-19T21:56:39.366Z,44.28
2023-04-19T22:02:10.897Z,21.27
2023-04-19T22:04:41.703Z,22.40
2023-04-19T22:07:11.562Z,25.90
2023-04-19T22:09:40.649Z,20.92
2023-04-19T22:12:11.660Z,23.30
2023-04-19T22:14:40.823Z,21.05
2023-04-19T22:17:10.315Z,18.75
2023-04-19T22:19:40.712Z,20.80
2023-04-19T22:22:10.959Z,19.30
2023-04-19T22:24:57.020Z,26.35
2023-04-19T22:27:28.728Z,24.75
2023-04-19T22:29:57.729Z,18.00
2023-04-19T22:32:26.637Z,19.42
2023-04-19T22:34:58.125Z,16.55
2023-04-19T22:37:30.790Z,16.95
2023-04-19T22:40:00.698Z,17.10
2023-04-19T22:42:29.613Z,18.70
2023-04-19T22:44:58.557Z,19.23
2023-04-19T22:47:29.664Z,15.77
2023-04-19T22:50:00.034Z,20.60
2023-04-19T22:52:28.997Z,16.85
2023-04-19T22:54:57.969Z,13.50
2023-04-19T22:57:27.084Z,12.57
2023-04-19T22:59:56.284Z,12.25
2023-04-19T23:02:25.181Z,12.73
2023-04-19T23:04:54.521Z,14.30
2023-04-19T23:07:24.832Z,14.85
2023-04-19T23:09:54.918Z,14.27
2023-04-19T23:12:24.179Z,12.93
2023-04-19T23:14:53.154Z,15.25
2023-04-19T23:17:22.144Z,13.32
2023-04-19T23:19:51.393Z,12.88
2023-04-19T23:22:22.160Z,11.07
2023-04-19T23:24:52.859Z,10.52
2023-04-19T23:27:22.256Z,11.98
2023-04-19T23:29:51.189Z,9.75
2023-04-19T23:32:32.325Z,14.63
2023-04-19T23:35:01.652Z,11.45
2023-04-19T23:37:30.832Z,12.35
2023-04-19T23:40:01.684Z,11.82
2023-04-19T23:42:30.612Z,12.40
2023-04-19T23:44:59.683Z,10.70
2023-04-19T23:47:28.692Z,12.98
2023-04-19T23:49:57.570Z,11.32
2023-04-19T23:52:27.617Z,11.45
2023-04-19T23:54:56.628Z,15.85
2023-04-19T23:57:27.100Z,12.20
2023-04-19T23:59:59.097Z,12.80
